Time;durP1;ratioP1;P1;durP2;ratioP2;P2;SDS_P1;SDS_P2;PMS_P1;PMS_P2;Temp;Humidity;BMP_temperature;BMP_pressure;BME280_temperature;BME280_humidity;BME280_pressure;Samples;Min_cycle;Max_cycle;Signal;HPM_P1;HPM_P2
2022/10/09 00:01:37;;;;;;;4.87;2.53;;;9.00;98.00;;;;;;5070792;28;21003;-67
2022/10/09 00:04:05;;;;;;;4.50;2.33;;;8.90;98.00;;;;;;5070425;28;20453;-67
2022/10/09 00:06:34;;;;;;;4.27;2.03;;;8.80;98.00;;;;;;5053473;28;20864;-67
2022/10/09 00:09:02;;;;;;;3.10;2.17;;;8.80;98.00;;;;;;5070945;28;20455;-66
2022/10/09 00:11:31;;;;;;;2.07;1.90;;;8.90;98.00;;;;;;5070858;28;20457;-66
2022/10/09 00:13:59;;;;;;;2.57;1.63;;;9.20;98.00;;;;;;5071241;28;20526;-66
2022/10/09 00:16:27;;;;;;;3.40;2.00;;;9.20;98.00;;;;;;5071171;28;20554;-66
2022/10/09 00:18:55;;;;;;;2.17;1.93;;;9.30;98.00;;;;;;5071043;28;20456;-66
2022/10/09 00:21:24;;;;;;;4.07;2.20;;;9.30;98.00;;;;;;5070924;28;20845;-66
2022/10/09 00:23:53;;;;;;;5.50;2.40;;;9.20;98.00;;;;;;5070682;28;20445;-66
2022/10/09 00:26:20;;;;;;;2.00;1.60;;;9.20;98.00;;;;;;5052936;28;20461;-66
2022/10/09 00:28:48;;;;;;;2.33;1.73;;;9.10;98.00;;;;;;5070764;28;20881;-66
2022/10/09 00:31:15;;;;;;;2.83;1.77;;;8.90;98.00;;;;;;5052981;28;20458;-67
2022/10/09 00:33:43;;;;;;;3.23;2.13;;;8.70;98.00;;;;;;5070771;28;20456;-66
2022/10/09 00:36:14;;;;;;;5.23;2.10;;;8.70;98.00;;;;;;5070619;28;20507;-67
2022/10/09 00:38:41;;;;;;;3.53;2.27;;;8.70;98.00;;;;;;5070705;28;20471;-66
2022/10/09 00:41:10;;;;;;;3.03;1.93;;;8.80;98.00;;;;;;5070640;28;20452;-67
2022/10/09 00:43:44;;;;;;;2.80;2.00;;;8.80;98.00;;;;;;5053147;28;20520;-66
2022/10/09 00:46:21;;;;;;;3.37;1.70;;;8.80;98.00;;;;;;5053458;28;20876;-66
2022/10/09 00:48:56;;;;;;;1.77;1.70;;;8.80;98.00;;;;;;5070722;28;20552;-67
2022/10/09 00:51:25;;;;;;;3.03;2.20;;;8.90;98.00;;;;;;5070672;28;20501;-67
2022/10/09 00:53:52;;;;;;;2.37;1.83;;;9.00;98.00;;;;;;5070477;28;20480;-67
2022/10/09 00:56:21;;;;;;;3.13;2.20;;;9.00;98.00;;;;;;5070457;28;20481;-66
2022/10/09 00:58:52;;;;;;;3.07;2.40;;;9.00;98.00;;;;;;5072728;28;20518;-66
2022/10/09 01:01:19;;;;;;;2.80;1.80;;;9.00;98.00;;;;;;5074084;28;20463;-67
2022/10/09 01:03:47;;;;;;;3.03;1.90;;;9.10;98.00;;;;;;5074043;28;20452;-67
2022/10/09 01:06:19;;;;;;;5.20;2.17;;;9.10;98.00;;;;;;5073826;28;20468;-68
2022/10/09 01:08:55;;;;;;;2.93;1.70;;;9.00;98.00;;;;;;5073959;28;20530;-67
2022/10/09 01:11:35;;;;;;;1.93;1.77;;;9.00;98.00;;;;;;5073893;28;20472;-66
2022/10/09 01:14:11;;;;;;;4.50;2.23;;;9.10;98.00;;;;;;5073833;28;20519;-67
2022/10/09 01:16:45;;;;;;;2.60;1.67;;;9.10;98.00;;;;;;5073928;28;21140;-67
2022/10/09 01:19:26;;;;;;;2.80;2.10;;;9.20;98.00;;;;;;5073695;28;20555;-67
2022/10/09 01:22:03;;;;;;;4.13;2.67;;;9.30;98.00;;;;;;5073275;28;20465;-66
2022/10/09 01:24:39;;;;;;;3.70;2.03;;;9.20;98.00;;;;;;5073713;28;20465;-67
2022/10/09 01:27:12;;;;;;;3.23;1.83;;;9.00;98.00;;;;;;5073432;28;20503;-67
2022/10/09 01:29:43;;;;;;;2.70;2.03;;;9.00;98.00;;;;;;5073594;28;20471;-67
2022/10/09 01:32:13;;;;;;;2.27;2.00;;;8.80;98.00;;;;;;5073346;28;20458;-67
2022/10/09 01:34:41;;;;;;;1.50;1.50;;;8.70;98.00;;;;;;5073539;28;20832;-67
2022/10/09 01:37:11;;;;;;;2.20;1.67;;;8.70;98.00;;;;;;5073408;28;20488;-67
2022/10/09 01:39:40;;;;;;;2.70;2.00;;;8.60;98.00;;;;;;5073245;28;20468;-67
2022/10/09 01:42:10;;;;;;;2.63;1.80;;;8.50;98.00;;;;;;5073241;28;20823;-67
2022/10/09 01:44:37;;;;;;;1.80;1.60;;;8.40;98.00;;;;;;5073572;28;21005;-67
2022/10/09 01:47:06;;;;;;;2.90;1.90;;;8.30;98.00;;;;;;5073323;28;20452;-67
2022/10/09 01:49:40;;;;;;;1.90;1.67;;;8.20;98.00;;;;;;5073469;28;20456;-67
2022/10/09 01:52:18;;;;;;;1.80;1.50;;;8.20;98.00;;;;;;5073162;28;20546;-67
2022/10/09 01:54:59;;;;;;;2.97;1.83;;;8.20;98.00;;;;;;5073182;28;20469;-66
2022/10/09 01:57:35;;;;;;;2.90;1.90;;;8.10;98.00;;;;;;5055154;28;20573;-67
2022/10/09 02:00:07;;;;;;;1.97;1.70;;;8.00;98.00;;;;;;5072972;28;20993;-66
2022/10/09 02:02:35;;;;;;;1.90;1.50;;;7.90;98.00;;;;;;5055581;28;20469;-66
2022/10/09 02:05:03;;;;;;;2.50;1.80;;;7.80;98.00;;;;;;5055356;28;20456;-66
2022/10/09 02:07:32;;;;;;;1.67;1.43;;;7.80;98.00;;;;;;5072890;28;20518;-67
2022/10/09 02:10:02;;;;;;;1.97;1.60;;;7.80;98.00;;;;;;5071815;28;20471;-67
2022/10/09 02:12:34;;;;;;;2.20;1.77;;;7.90;98.00;;;;;;5072657;28;20868;-67
2022/10/09 02:15:02;;;;;;;4.40;2.07;;;7.90;98.00;;;;;;5072613;28;20491;-67
2022/10/09 02:17:34;;;;;;;2.90;1.67;;;7.90;98.00;;;;;;5071249;28;21062;-67
2022/10/09 02:20:06;;;;;;;2.30;1.70;;;7.70;98.00;;;;;;5072652;28;20520;-67
2022/10/09 02:22:34;;;;;;;1.70;1.30;;;7.70;98.00;;;;;;5073067;28;20453;-67
2022/10/09 02:25:06;;;;;;;5.07;1.63;;;7.80;98.00;;;;;;5072828;28;20501;-66
2022/10/09 02:27:35;;;;;;;2.70;1.63;;;7.90;98.00;;;;;;5072301;28;20868;-67
2022/10/09 02:30:04;;;;;;;2.10;1.60;;;7.90;98.00;;;;;;5072278;28;20557;-66
2022/10/09 02:32:31;;;;;;;4.77;1.93;;;7.90;98.00;;;;;;5072209;28;20950;-66
2022/10/09 02:34:58;;;;;;;4.33;2.50;;;7.90;98.00;;;;;;5072271;28;20456;-67
2022/10/09 02:37:25;;;;;;;3.67;1.60;;;7.80;98.00;;;;;;5071994;28;20480;-67
2022/10/09 02:39:53;;;;;;;3.23;1.40;;;7.70;98.00;;;;;;5038011;28;20452;-67
2022/10/09 02:42:20;;;;;;;1.97;1.47;;;7.70;98.00;;;;;;5072189;28;20455;-66
2022/10/09 02:44:49;;;;;;;1.60;1.53;;;7.70;98.00;;;;;;5072182;28;20449;-66
2022/10/09 02:47:16;;;;;;;3.83;1.83;;;7.80;98.00;;;;;;5054520;28;20454;-66
2022/10/09 02:49:43;;;;;;;2.63;1.83;;;7.70;98.00;;;;;;5072375;28;20445;-67
2022/10/09 02:52:10;;;;;;;2.07;1.63;;;7.70;98.00;;;;;;5071909;28;20478;-66
2022/10/09 02:54:37;;;;;;;2.13;1.67;;;7.70;98.00;;;;;;5071991;28;20464;-66
2022/10/09 02:57:04;;;;;;;2.27;1.70;;;7.80;98.00;;;;;;5071571;28;20878;-67
2022/10/09 02:59:32;;;;;;;2.37;1.40;;;7.80;98.00;;;;;;5054118;28;20454;-67
2022/10/09 03:02:00;;;;;;;1.60;1.53;;;7.90;98.00;;;;;;5071698;28;20495;-66
2022/10/09 03:04:27;;;;;;;4.23;1.77;;;8.00;98.00;;;;;;5071209;28;20464;-66
2022/10/09 03:06:54;;;;;;;2.47;1.67;;;8.00;98.00;;;;;;5053970;28;20448;-67
2022/10/09 03:09:21;;;;;;;3.73;1.70;;;7.90;98.00;;;;;;5071689;28;20468;-66
2022/10/09 03:11:56;;;;;;;3.00;2.10;;;7.70;98.00;;;;;;5071684;28;20466;-66
2022/10/09 03:14:24;;;;;;;1.90;1.20;;;7.50;98.00;;;;;;5071542;28;20516;-66
2022/10/09 03:16:51;;;;;;;3.20;1.70;;;7.50;98.00;;;;;;5071411;28;20528;-66
2022/10/09 03:19:19;;;;;;;1.83;1.43;;;7.30;98.00;;;;;;5071479;28;20459;-66
2022/10/09 03:21:46;;;;;;;2.20;1.87;;;7.20;98.00;;;;;;5071159;28;20462;-66
2022/10/09 03:24:13;;;;;;;1.83;1.43;;;7.30;98.00;;;;;;5071351;28;20458;-66
2022/10/09 03:26:40;;;;;;;1.50;1.20;;;7.20;98.00;;;;;;5071424;28;20513;-66
2022/10/09 03:29:07;;;;;;;2.00;1.90;;;7.20;98.00;;;;;;5071220;28;20458;-66
2022/10/09 03:31:34;;;;;;;2.77;1.70;;;7.20;98.00;;;;;;5071526;28;20486;-66
2022/10/09 03:34:02;;;;;;;1.83;1.20;;;7.20;98.00;;;;;;5071219;28;20472;-67
2022/10/09 03:36:30;;;;;;;3.40;1.50;;;7.10;98.00;;;;;;5070732;28;20483;-66
2022/10/09 03:38:57;;;;;;;3.80;1.60;;;7.10;98.00;;;;;;5071147;28;20451;-66
2022/10/09 03:41:24;;;;;;;2.20;1.80;;;7.10;98.00;;;;;;5071360;28;20450;-66
2022/10/09 03:43:51;;;;;;;1.90;1.50;;;7.20;98.00;;;;;;5071236;28;20464;-66
2022/10/09 03:46:18;;;;;;;1.83;1.80;;;7.30;98.00;;;;;;5071232;28;20464;-66
2022/10/09 03:48:46;;;;;;;3.30;1.83;;;7.20;98.00;;;;;;5071262;28;20461;-66
2022/10/09 03:51:13;;;;;;;3.40;1.53;;;7.40;98.00;;;;;;5071164;28;20470;-66
2022/10/09 03:53:41;;;;;;;2.10;1.70;;;7.50;98.00;;;;;;5071228;28;20969;-66
2022/10/09 03:56:08;;;;;;;2.70;1.50;;;7.40;98.00;;;;;;5071048;28;20815;-66
2022/10/09 03:58:35;;;;;;;1.73;1.53;;;7.20;98.00;;;;;;5071041;28;20470;-66
2022/10/09 04:01:02;;;;;;;8.70;1.80;;;7.00;98.00;;;;;;5070831;28;20480;-66
2022/10/09 04:03:30;;;;;;;2.27;1.77;;;6.90;98.00;;;;;;5070930;28;20851;-67
2022/10/09 04:05:57;;;;;;;2.83;2.10;;;7.00;98.00;;;;;;5053184;28;20451;-66
2022/10/09 04:08:24;;;;;;;2.17;1.90;;;7.00;98.00;;;;;;5071103;28;20461;-66
2022/10/09 04:10:58;;;;;;;2.40;2.10;;;6.80;98.00;;;;;;5053314;28;20864;-66
2022/10/09 04:13:25;;;;;;;1.70;1.70;;;6.90;98.00;;;;;;5070890;28;20493;-66
2022/10/09 04:15:53;;;;;;;2.60;1.63;;;6.90;98.00;;;;;;5071051;28;20455;-66
2022/10/09 04:18:20;;;;;;;1.70;1.40;;;6.80;98.00;;;;;;5070942;28;20489;-66
2022/10/09 04:20:50;;;;;;;2.10;1.67;;;6.80;98.00;;;;;;5053304;28;20457;-66
2022/10/09 04:23:18;;;;;;;1.60;1.30;;;6.80;98.00;;;;;;5071077;28;20466;-66
2022/10/09 04:25:45;;;;;;;2.57;1.70;;;6.70;98.00;;;;;;5071999;28;20485;-66
2022/10/09 04:28:14;;;;;;;1.83;1.63;;;6.70;98.00;;;;;;5052826;28;20458;-66
2022/10/09 04:30:41;;;;;;;4.50;1.90;;;6.80;98.00;;;;;;5070771;28;20484;-66
2022/10/09 04:33:08;;;;;;;2.53;1.47;;;6.80;98.00;;;;;;5054247;28;20451;-66
2022/10/09 04:35:35;;;;;;;1.50;1.50;;;6.70;98.00;;;;;;5074542;28;20473;-66
2022/10/09 04:38:03;;;;;;;1.90;1.60;;;6.70;98.00;;;;;;5074662;28;20489;-66
2022/10/09 04:40:30;;;;;;;2.17;1.40;;;6.70;98.00;;;;;;5074558;28;20855;-66
2022/10/09 04:42:57;;;;;;;2.53;1.70;;;6.70;98.00;;;;;;5074355;28;20455;-66
2022/10/09 04:45:25;;;;;;;5.40;2.80;;;6.70;98.00;;;;;;5074585;28;20884;-66
2022/10/09 04:47:52;;;;;;;2.30;1.60;;;6.70;98.00;;;;;;5074626;28;20454;-66
2022/10/09 04:50:19;;;;;;;1.60;1.30;;;6.80;98.00;;;;;;5074453;28;20956;-66
2022/10/09 04:52:46;;;;;;;2.33;1.60;;;6.60;98.00;;;;;;5074100;28;20453;-67
2022/10/09 04:55:13;;;;;;;1.40;1.37;;;6.70;98.00;;;;;;5074161;28;20851;-66
2022/10/09 04:57:40;;;;;;;3.97;2.13;;;6.70;98.00;;;;;;5073871;28;21044;-66
2022/10/09 05:00:08;;;;;;;2.90;1.83;;;6.70;98.00;;;;;;5074064;28;20449;-66
2022/10/09 05:02:37;;;;;;;2.97;1.77;;;6.70;98.00;;;;;;5055906;28;20537;-66
2022/10/09 05:05:05;;;;;;;6.83;1.70;;;6.70;98.00;;;;;;5074093;28;20464;-66
2022/10/09 05:07:32;;;;;;;3.37;1.60;;;6.70;98.00;;;;;;5073821;28;20447;-66
2022/10/09 05:09:59;;;;;;;3.20;1.93;;;6.70;98.00;;;;;;5073693;28;20459;-66
2022/10/09 05:12:28;;;;;;;2.43;1.40;;;6.80;98.00;;;;;;5073764;28;20450;-67
2022/10/09 05:14:55;;;;;;;1.87;1.40;;;6.60;98.00;;;;;;5056143;28;20453;-66
2022/10/09 05:17:25;;;;;;;2.53;2.10;;;6.60;98.00;;;;;;5073671;28;20839;-66
2022/10/09 05:19:54;;;;;;;3.77;2.43;;;6.50;98.00;;;;;;5073845;28;20457;-67
2022/10/09 05:22:24;;;;;;;1.80;1.57;;;6.60;98.00;;;;;;5073680;28;20467;-66
2022/10/09 05:24:51;;;;;;;3.77;2.23;;;6.40;98.00;;;;;;5056562;28;20464;-67
2022/10/09 05:27:19;;;;;;;1.30;1.10;;;6.40;98.00;;;;;;5073518;28;20458;-66
2022/10/09 05:29:46;;;;;;;2.20;1.47;;;6.30;98.00;;;;;;5073641;28;20556;-66
2022/10/09 05:32:14;;;;;;;1.60;1.30;;;6.30;98.00;;;;;;5055654;28;20460;-66
2022/10/09 05:34:42;;;;;;;1.93;1.53;;;6.20;98.00;;;;;;5073565;28;20494;-66
2022/10/09 05:37:10;;;;;;;2.17;1.60;;;6.20;98.00;;;;;;5073237;28;20485;-66
2022/10/09 05:39:38;;;;;;;2.47;1.60;;;6.10;98.00;;;;;;5073648;28;20450;-66
2022/10/09 05:42:06;;;;;;;2.90;1.90;;;6.10;98.00;;;;;;5073413;28;20802;-66
2022/10/09 05:44:33;;;;;;;2.23;1.77;;;6.20;98.00;;;;;;5073357;28;20947;-66
2022/10/09 05:47:01;;;;;;;3.00;1.70;;;6.40;98.00;;;;;;5055726;28;20503;-66
2022/10/09 05:49:28;;;;;;;2.30;1.67;;;6.40;98.00;;;;;;5073396;28;20459;-66
2022/10/09 05:51:55;;;;;;;2.10;1.70;;;6.30;98.00;;;;;;5073115;28;20513;-66
2022/10/09 05:54:24;;;;;;;3.30;2.33;;;6.20;98.00;;;;;;5073215;28;20599;-66
2022/10/09 05:56:51;;;;;;;4.13;2.37;;;6.20;98.00;;;;;;5072968;28;20548;-67
2022/10/09 05:59:19;;;;;;;2.80;1.93;;;6.10;98.00;;;;;;5055135;28;20454;-66
2022/10/09 06:01:48;;;;;;;3.60;2.17;;;6.10;98.00;;;;;;5072949;28;20464;-66
2022/10/09 06:04:18;;;;;;;3.60;1.90;;;6.10;98.00;;;;;;5072780;28;20458;-66
2022/10/09 06:06:49;;;;;;;5.10;2.20;;;6.10;98.00;;;;;;5072964;28;20515;-66
2022/10/09 06:09:18;;;;;;;4.43;2.50;;;6.10;98.00;;;;;;5072658;28;20854;-66
2022/10/09 06:11:46;;;;;;;4.00;2.20;;;6.20;98.00;;;;;;5072759;28;20454;-66
2022/10/09 06:14:14;;;;;;;4.53;2.40;;;6.20;98.00;;;;;;5072561;28;20456;-66
2022/10/09 06:16:43;;;;;;;3.40;2.07;;;6.20;98.00;;;;;;5072511;28;20458;-66
2022/10/09 06:19:13;;;;;;;2.00;1.90;;;6.10;98.00;;;;;;5072375;28;20853;-67
2022/10/09 06:21:40;;;;;;;2.90;2.07;;;6.20;98.00;;;;;;5072611;28;20457;-66
2022/10/09 06:24:07;;;;;;;2.43;1.83;;;6.10;98.00;;;;;;5072397;28;20464;-67
2022/10/09 06:26:35;;;;;;;3.10;1.90;;;6.00;98.00;;;;;;5072570;28;20457;-67
2022/10/09 06:29:04;;;;;;;3.77;2.20;;;5.90;98.00;;;;;;5072160;28;20520;-66
2022/10/09 06:31:32;;;;;;;2.03;1.40;;;6.00;98.00;;;;;;5072344;28;20467;-66
2022/10/09 06:34:01;;;;;;;2.83;1.30;;;6.00;98.00;;;;;;5072178;28;20502;-66
2022/10/09 06:36:29;;;;;;;1.87;1.70;;;6.10;98.00;;;;;;5072381;28;20464;-66
2022/10/09 06:38:59;;;;;;;3.10;2.10;;;6.20;98.00;;;;;;5072050;28;20853;-67
2022/10/09 06:41:27;;;;;;;3.87;1.80;;;6.20;98.00;;;;;;5072293;28;20461;-67
2022/10/09 06:43:55;;;;;;;1.40;1.33;;;6.30;98.00;;;;;;5072096;28;20458;-66
2022/10/09 06:46:26;;;;;;;2.77;1.90;;;6.50;98.00;;;;;;5072227;28;20454;-66
2022/10/09 06:48:53;;;;;;;4.17;2.20;;;6.60;98.00;;;;;;5072328;28;20569;-67
2022/10/09 06:51:22;;;;;;;3.67;2.13;;;6.80;98.00;;;;;;5072075;28;20443;-66
2022/10/09 06:53:53;;;;;;;2.30;1.80;;;6.80;98.00;;;;;;5071907;28;20460;-65
2022/10/09 06:56:22;;;;;;;2.53;1.77;;;6.80;98.00;;;;;;5071356;28;20479;-64
2022/10/09 06:58:49;;;;;;;4.77;2.20;;;6.90;98.00;;;;;;5071776;28;20824;-64
2022/10/09 07:01:19;;;;;;;3.10;2.10;;;7.00;98.00;;;;;;5071666;28;20822;-64
2022/10/09 07:03:52;;;;;;;3.30;2.30;;;7.00;98.00;;;;;;5071809;28;20460;-64
2022/10/09 07:06:21;;;;;;;3.03;1.80;;;7.00;98.00;;;;;;5053968;28;20849;-64
2022/10/09 07:08:49;;;;;;;8.77;2.30;;;7.00;98.00;;;;;;5071541;28;20462;-64
2022/10/09 07:11:20;;;;;;;2.87;1.63;;;7.10;98.00;;;;;;5071566;28;20466;-64
2022/10/09 07:13:49;;;;;;;1.73;1.57;;;7.10;98.00;;;;;;5071459;28;20521;-64
2022/10/09 07:16:20;;;;;;;5.63;2.03;;;7.40;98.00;;;;;;5071474;28;20451;-64
2022/10/09 07:18:48;;;;;;;2.57;1.80;;;7.50;98.00;;;;;;5071401;28;20498;-64
2022/10/09 07:21:16;;;;;;;3.30;2.03;;;7.60;98.00;;;;;;5071444;28;20451;-64
2022/10/09 07:23:43;;;;;;;2.80;1.50;;;7.70;98.00;;;;;;5071180;28;20456;-64
2022/10/09 07:26:15;;;;;;;5.13;2.00;;;7.80;98.00;;;;;;5071474;28;20467;-65
2022/10/09 07:28:43;;;;;;;3.40;2.33;;;7.90;98.00;;;;;;5071291;28;20466;-64
2022/10/09 07:31:11;;;;;;;2.60;1.83;;;8.00;98.00;;;;;;5071403;28;20458;-64
2022/10/09 07:33:38;;;;;;;2.70;1.57;;;8.10;98.00;;;;;;5053481;28;20505;-65
2022/10/09 07:36:08;;;;;;;3.53;1.93;;;8.30;98.00;;;;;;5071212;28;20462;-64
2022/10/09 07:38:35;;;;;;;2.70;1.97;;;8.30;98.00;;;;;;5071139;28;20488;-64
2022/10/09 07:41:05;;;;;;;3.20;1.77;;;8.40;98.00;;;;;;5071445;28;20466;-65
2022/10/09 07:43:38;;;;;;;2.90;2.10;;;8.50;98.00;;;;;;5053919;28;20462;-64
2022/10/09 07:46:07;;;;;;;3.20;2.60;;;8.60;98.00;;;;;;5071432;28;20546;-64
2022/10/09 07:48:35;;;;;;;2.73;1.90;;;8.70;98.00;;;;;;5071394;28;20474;-65
2022/10/09 07:51:10;;;;;;;3.63;2.03;;;8.90;98.00;;;;;;5053150;28;20518;-65
2022/10/09 07:53:39;;;;;;;1.60;1.40;;;8.90;98.00;;;;;;5071200;28;20461;-64
2022/10/09 07:56:07;;;;;;;2.03;1.60;;;9.20;98.00;;;;;;5071128;28;20454;-64
2022/10/09 07:58:34;;;;;;;2.13;1.90;;;9.40;98.00;;;;;;5070864;28;20483;-64
2022/10/09 08:01:05;;;;;;;3.77;2.27;;;9.60;98.00;;;;;;5070890;28;20502;-64
2022/10/09 08:03:33;;;;;;;1.87;1.80;;;9.80;98.00;;;;;;5070895;28;20449;-64
2022/10/09 08:06:00;;;;;;;2.53;1.80;;;10.00;98.00;;;;;;5070881;28;20976;-65
2022/10/09 08:08:28;;;;;;;2.37;1.83;;;10.10;98.00;;;;;;5073105;28;20469;-64
2022/10/09 08:10:57;;;;;;;6.90;2.83;;;10.30;98.00;;;;;;5075111;28;20530;-65
2022/10/09 08:13:27;;;;;;;3.87;2.30;;;10.50;98.00;;;;;;5074908;28;20472;-65
2022/10/09 08:15:57;;;;;;;2.67;1.80;;;10.70;98.00;;;;;;5075198;28;20461;-64
2022/10/09 08:18:24;;;;;;;2.60;1.67;;;10.90;98.00;;;;;;5075040;28;20505;-65
2022/10/09 08:20:58;;;;;;;2.17;1.73;;;11.00;98.00;;;;;;5057254;28;20510;-64
2022/10/09 08:23:26;;;;;;;3.33;1.80;;;11.30;98.00;;;;;;5074674;28;20455;-64
2022/10/09 08:25:54;;;;;;;2.20;1.80;;;11.50;98.00;;;;;;5074810;28;20457;-65
2022/10/09 08:28:22;;;;;;;1.50;1.40;;;11.70;98.00;;;;;;5074716;28;20459;-64
2022/10/09 08:30:49;;;;;;;2.17;1.57;;;11.80;98.00;;;;;;5074714;28;20463;-64
2022/10/09 08:33:20;;;;;;;2.00;1.47;;;12.00;98.00;;;;;;5074570;28;20458;-65
2022/10/09 08:35:48;;;;;;;2.97;2.00;;;12.10;98.00;;;;;;5074611;28;20824;-64
2022/10/09 08:38:15;;;;;;;2.80;1.70;;;12.30;98.00;;;;;;5056806;28;20877;-65
2022/10/09 08:40:50;;;;;;;2.30;1.70;;;12.50;98.00;;;;;;5074546;28;20503;-65
2022/10/09 08:43:28;;;;;;;2.03;1.73;;;12.70;98.00;;;;;;5074446;28;20448;-65
2022/10/09 08:45:58;;;;;;;3.73;1.80;;;12.90;98.00;;;;;;5074678;28;20460;-64
2022/10/09 08:48:27;;;;;;;1.70;1.30;;;13.00;98.00;;;;;;5056720;28;20486;-65
2022/10/09 08:50:57;;;;;;;2.70;1.77;;;13.20;98.00;;;;;;5074404;28;20466;-65
2022/10/09 08:53:34;;;;;;;2.50;1.73;;;13.30;98.00;;;;;;5054888;28;20468;-66
2022/10/09 08:56:03;;;;;;;1.73;1.33;;;13.50;98.00;;;;;;5071583;28;20468;-65
2022/10/09 08:58:34;;;;;;;2.83;2.13;;;13.60;98.00;;;;;;5071759;28;20586;-65
2022/10/09 09:01:09;;;;;;;1.70;1.40;;;13.80;98.00;;;;;;5071625;28;20519;-65
2022/10/09 09:03:52;;;;;;;4.70;2.60;;;13.90;98.00;;;;;;5071413;28;20472;-64
2022/10/09 09:06:26;;;;;;;2.97;1.90;;;14.10;98.00;;;;;;5071749;28;20455;-65
2022/10/09 09:08:59;;;;;;;2.80;1.77;;;14.20;98.00;;;;;;5071469;28;20965;-64
2022/10/09 09:11:37;;;;;;;2.80;1.70;;;14.40;98.00;;;;;;5071291;28;20536;-65
2022/10/09 09:14:19;;;;;;;4.10;1.90;;;14.60;98.00;;;;;;5071329;28;20467;-65
2022/10/09 09:16:54;;;;;;;3.47;1.73;;;14.80;98.00;;;;;;5071524;28;20483;-65
2022/10/09 09:19:39;;;;;;;3.13;2.20;;;15.00;98.00;;;;;;5052878;28;20495;-65
2022/10/09 09:22:11;;;;;;;2.43;1.60;;;15.20;98.00;;;;;;5065253;28;20466;-65
2022/10/09 09:24:45;;;;;;;1.97;1.70;;;15.40;98.00;;;;;;5071098;28;20466;-65
2022/10/09 09:27:14;;;;;;;2.70;1.77;;;15.60;98.00;;;;;;5070526;28;20486;-65
2022/10/09 09:29:47;;;;;;;2.00;1.50;;;15.90;98.00;;;;;;5071219;28;20460;-65
2022/10/09 09:32:20;;;;;;;3.37;1.70;;;16.10;98.00;;;;;;5071008;28;20464;-65
2022/10/09 09:34:48;;;;;;;2.60;1.90;;;16.30;98.00;;;;;;5053808;28;20475;-65
2022/10/09 09:37:19;;;;;;;2.07;1.60;;;16.50;98.00;;;;;;5071326;28;20465;-66
2022/10/09 09:39:47;;;;;;;2.20;1.70;;;16.70;98.00;;;;;;5071497;28;20498;-65
2022/10/09 09:42:17;;;;;;;2.00;1.50;;;16.90;98.00;;;;;;5073782;28;20463;-65
2022/10/09 09:44:55;;;;;;;1.73;1.50;;;17.00;98.00;;;;;;5072507;28;20483;-65
2022/10/09 09:47:29;;;;;;;2.33;1.70;;;17.10;98.00;;;;;;5052877;28;20486;-64
2022/10/09 09:49:58;;;;;;;2.70;1.70;;;17.20;98.00;;;;;;5069001;28;20952;-63
2022/10/09 09:52:28;;;;;;;2.20;1.63;;;17.40;98.00;;;;;;5070834;28;20467;-63
2022/10/09 09:54:57;;;;;;;2.00;1.50;;;17.40;98.00;;;;;;5070946;28;20451;-63
2022/10/09 09:57:36;;;;;;;2.00;1.43;;;17.50;98.00;;;;;;5052664;28;20958;-64
2022/10/09 10:00:20;;;;;;;2.17;1.47;;;17.80;98.00;;;;;;5071020;28;20830;-64
2022/10/09 10:02:48;;;;;;;2.53;1.50;;;18.00;97.20;;;;;;5064111;28;20464;-65
2022/10/09 10:05:18;;;;;;;4.43;1.77;;;18.10;97.20;;;;;;5070440;28;20441;-64
2022/10/09 10:07:48;;;;;;;1.90;1.60;;;18.20;96.40;;;;;;5052789;28;20982;-65
2022/10/09 10:10:18;;;;;;;4.50;1.70;;;18.40;96.00;;;;;;5070590;28;20514;-64
2022/10/09 10:12:53;;;;;;;2.03;1.60;;;18.60;95.60;;;;;;5070384;28;21032;-64
2022/10/09 10:15:25;;;;;;;2.27;1.50;;;18.70;95.30;;;;;;5070526;28;20743;-65
2022/10/09 10:17:59;;;;;;;2.90;1.60;;;18.80;94.20;;;;;;5070391;28;20829;-66
2022/10/09 10:20:28;;;;;;;1.50;1.40;;;18.80;93.70;;;;;;5070198;28;20906;-65
2022/10/09 10:22:58;;;;;;;1.87;1.57;;;18.80;92.30;;;;;;5069920;28;20453;-66
2022/10/09 10:25:29;;;;;;;2.60;1.70;;;18.80;95.20;;;;;;5070082;28;20453;-66
2022/10/09 10:28:01;;;;;;;2.23;1.80;;;19.00;93.70;;;;;;5070092;28;20741;-65
2022/10/09 10:30:31;;;;;;;1.97;1.50;;;19.00;92.80;;;;;;5069169;28;20827;-66
2022/10/09 10:33:05;;;;;;;2.50;1.77;;;19.10;94.30;;;;;;5069815;28;20465;-66
2022/10/09 10:35:35;;;;;;;1.80;1.50;;;19.40;93.50;;;;;;5077127;28;20452;-66
2022/10/09 10:38:07;;;;;;;2.23;1.57;;;19.50;93.10;;;;;;5069913;28;20536;-66
2022/10/09 10:40:36;;;;;;;1.90;1.50;;;19.70;92.50;;;;;;5070086;28;20859;-66
2022/10/09 10:43:28;;;;;;;1.90;1.70;;;19.80;92.10;;;;;;5069737;28;20456;-66
2022/10/09 10:46:04;;;;;;;2.00;1.50;;;19.90;91.40;;;;;;5062255;28;20468;-66
2022/10/09 10:48:33;;;;;;;1.57;1.50;;;20.20;89.50;;;;;;5069965;28;20510;-66
2022/10/09 10:51:10;;;;;;;2.07;1.67;;;20.60;90.20;;;;;;5067555;28;20460;-66
2022/10/09 10:53:47;;;;;;;2.97;1.63;;;20.80;90.70;;;;;;5052556;28;21008;-66
2022/10/09 10:56:24;;;;;;;5.30;1.60;;;20.90;88.20;;;;;;5069450;28;20551;-65
2022/10/09 10:59:00;;;;;;;2.80;1.90;;;21.10;88.20;;;;;;5069089;28;20476;-66
2022/10/09 11:01:41;;;;;;;2.67;1.60;;;21.00;88.80;;;;;;5069271;28;20488;-66
2022/10/09 11:04:42;;;;;;;1.67;1.50;;;20.90;88.20;;;;;;5069364;28;20468;-66
2022/10/09 11:07:19;;;;;;;2.10;1.60;;;21.00;89.30;;;;;;5053434;28;20461;-65
2022/10/09 11:09:56;;;;;;;3.13;1.80;;;21.10;90.00;;;;;;5069170;28;20474;-66
2022/10/09 11:12:32;;;;;;;4.07;1.80;;;21.10;88.40;;;;;;5069210;28;20464;-66
2022/10/09 11:15:08;;;;;;;2.13;1.40;;;21.00;87.90;;;;;;5069301;28;20456;-66
2022/10/09 11:17:43;;;;;;;3.27;1.77;;;21.00;87.50;;;;;;5069162;28;20452;-66
2022/10/09 11:20:34;;;;;;;1.70;1.50;;;21.10;87.40;;;;;;5069299;28;20495;-66
2022/10/09 11:23:11;;;;;;;1.90;1.43;;;21.30;87.40;;;;;;5069084;28;20461;-66
2022/10/09 11:25:52;;;;;;;2.13;1.50;;;21.30;87.20;;;;;;5035361;28;20465;-67
2022/10/09 11:28:24;;;;;;;1.60;1.40;;;21.10;87.30;;;;;;5051443;28;20763;-66
2022/10/09 11:30:57;;;;;;;2.07;1.60;;;21.20;87.70;;;;;;5051554;28;20453;-66
2022/10/09 11:33:32;;;;;;;1.93;1.63;;;21.30;87.10;;;;;;5068797;28;20535;-66
2022/10/09 11:36:03;;;;;;;1.57;1.40;;;21.50;85.90;;;;;;5068991;28;20463;-66
2022/10/09 11:38:35;;;;;;;1.70;1.40;;;22.00;86.50;;;;;;5068977;28;20448;-66
2022/10/09 11:41:04;;;;;;;1.97;1.80;;;22.40;84.80;;;;;;5068735;28;20653;-66
2022/10/09 11:43:51;;;;;;;2.20;1.93;;;22.70;84.00;;;;;;5068605;28;20461;-66
2022/10/09 11:46:25;;;;;;;1.97;1.40;;;22.80;83.70;;;;;;5050668;28;20533;-67
2022/10/09 11:48:59;;;;;;;1.90;1.57;;;22.90;82.10;;;;;;5060952;28;20997;-66
2022/10/09 11:51:34;;;;;;;2.50;1.70;;;22.90;82.80;;;;;;5067105;28;20548;-66
2022/10/09 11:54:03;;;;;;;1.70;1.60;;;22.90;82.70;;;;;;5050875;28;20456;-64
2022/10/09 11:56:34;;;;;;;1.97;1.53;;;22.80;82.00;;;;;;5071172;28;20473;-62
2022/10/09 11:59:04;;;;;;;1.80;1.50;;;22.80;82.20;;;;;;5070650;28;20576;-63
2022/10/09 12:01:34;;;;;;;1.80;1.40;;;23.00;82.60;;;;;;5070939;28;20981;-63
2022/10/09 12:04:09;;;;;;;2.27;1.50;;;23.10;81.90;;;;;;5071096;28;20819;-62
2022/10/09 12:06:47;;;;;;;1.80;1.50;;;23.10;80.80;;;;;;5071103;28;20466;-64
2022/10/09 12:09:22;;;;;;;1.77;1.50;;;23.20;81.60;;;;;;5071048;28;20491;-63
2022/10/09 12:12:02;;;;;;;2.10;1.60;;;23.30;80.70;;;;;;5071099;28;20453;-64
2022/10/09 12:14:30;;;;;;;3.13;1.60;;;23.40;80.40;;;;;;5071057;28;20448;-64
2022/10/09 12:16:58;;;;;;;1.73;1.40;;;23.60;80.90;;;;;;5070886;28;20488;-64
2022/10/09 12:19:30;;;;;;;2.30;1.67;;;23.40;80.70;;;;;;5070646;28;20573;-63
2022/10/09 12:22:04;;;;;;;2.70;1.80;;;23.20;81.90;;;;;;5070941;28;20499;-63
2022/10/09 12:24:36;;;;;;;1.70;1.40;;;23.30;83.30;;;;;;5070929;28;21040;-63
2022/10/09 12:27:05;;;;;;;2.33;1.50;;;23.20;81.40;;;;;;5070876;28;20535;-63
2022/10/09 12:29:37;;;;;;;2.13;1.60;;;23.50;81.90;;;;;;5053216;28;20480;-63
2022/10/09 12:32:12;;;;;;;2.13;1.63;;;23.60;82.00;;;;;;5070838;28;20461;-63
2022/10/09 12:34:47;;;;;;;2.40;1.83;;;24.00;80.60;;;;;;5070892;28;20660;-62
2022/10/09 12:37:16;;;;;;;2.40;1.80;;;24.20;79.50;;;;;;5070784;28;20519;-63
2022/10/09 12:39:45;;;;;;;5.53;1.80;;;24.50;78.70;;;;;;5070614;28;20491;-63
2022/10/09 12:42:17;;;;;;;3.00;1.70;;;24.10;80.20;;;;;;5070587;28;20526;-63
2022/10/09 12:44:45;;;;;;;2.17;1.50;;;24.20;78.20;;;;;;5070630;28;20500;-63
2022/10/09 12:47:19;;;;;;;1.63;1.63;;;24.10;77.90;;;;;;5070770;28;20876;-64
2022/10/09 12:49:57;;;;;;;3.30;1.90;;;24.10;79.40;;;;;;5070857;28;20522;-63
2022/10/09 12:52:24;;;;;;;2.57;1.50;;;24.10;78.80;;;;;;5070806;28;20461;-62
2022/10/09 12:54:51;;;;;;;1.70;1.60;;;24.00;79.50;;;;;;5072994;28;20951;-63
2022/10/09 12:57:19;;;;;;;1.90;1.40;;;23.90;79.10;;;;;;5074193;28;21001;-63
2022/10/09 12:59:48;;;;;;;3.13;1.60;;;24.00;80.00;;;;;;5073982;28;20480;-63
2022/10/09 13:02:16;;;;;;;1.93;1.70;;;24.10;79.50;;;;;;5056499;28;20500;-63
2022/10/09 13:04:53;;;;;;;3.93;1.87;;;23.90;79.10;;;;;;5074182;28;20475;-63
2022/10/09 13:07:24;;;;;;;3.70;1.90;;;23.90;78.00;;;;;;5074167;28;20879;-63
2022/10/09 13:10:11;;;;;;;1.93;1.67;;;24.00;79.30;;;;;;5074003;28;20449;-64